WAT2918 SBRF-GVAC
Flight info
| Callsign | WAT2918 |
|---|---|
| Flight time | 4h 18m |
| Altitude | 37000 |
| Route | FNR UN857 KOPDU/N0466F390 UN857 BOTNO/N0464F380 DCT SNT DCT AMDER AMDER1F |
| Aircraft | A339/H-SADE1E2E3GHIJ3J5M1P2RWXY/LB2D1 |
Departure
| Time | 2026-04-28 12:17 |
|---|---|
| Airport | Recife/Guararapes - Gilberto Freyre International Airport (SBRF) |
Arrival
| Time | 2026-04-28 16:35 |
|---|---|
| Airport | Amílcar Cabral International Airport (GVAC) |
| Time | Latitude | Longitude | Altitude | Speed | Heading |
|---|---|---|---|---|---|
| 2026-04-28 11:54 | -8.12864 | -34.91923 | 56 ft | 0 kts | 124° |
| 2026-04-28 12:04 | -8.12863 | -34.91925 | 55 ft | 0 kts | 124° |
| 2026-04-28 12:04 | -8.12861 | -34.91928 | 55 ft | 0 kts | 124° |
| 2026-04-28 12:04 | -8.12861 | -34.91929 | 55 ft | 0 kts | 124° |
| 2026-04-28 12:05 | -8.12861 | -34.91928 | 55 ft | 0 kts | 124° |
| 2026-04-28 12:06 | -8.12862 | -34.91927 | 55 ft | 0 kts | 124° |
| 2026-04-28 12:07 | -8.12861 | -34.91927 | 55 ft | 1 kts | 124° |
| 2026-04-28 12:07 | -8.12853 | -34.91940 | 55 ft | 2 kts | 125° |
| 2026-04-28 12:07 | -8.12844 | -34.91952 | 55 ft | 2 kts | 124° |
| 2026-04-28 12:07 | -8.12834 | -34.91964 | 55 ft | 2 kts | 142° |
| 2026-04-28 12:08 | -8.12822 | -34.91972 | 55 ft | 2 kts | 158° |
| 2026-04-28 12:08 | -8.12808 | -34.91976 | 55 ft | 2 kts | 174° |
| 2026-04-28 12:08 | -8.12792 | -34.91976 | 55 ft | 2 kts | 190° |
| 2026-04-28 12:08 | -8.12778 | -34.91972 | 55 ft | 2 kts | 206° |
| 2026-04-28 12:09 | -8.12771 | -34.91968 | 55 ft | 1 kts | 213° |
| 2026-04-28 12:09 | -8.12769 | -34.91967 | 55 ft | 0 kts | 213° |
| 2026-04-28 12:12 | -8.12783 | -34.91976 | 54 ft | 5 kts | 213° |
| 2026-04-28 12:13 | -8.12838 | -34.92012 | 54 ft | 12 kts | 213° |
| 2026-04-28 12:13 | -8.12874 | -34.92068 | 54 ft | 9 kts | 285° |
| 2026-04-28 12:13 | -8.12798 | -34.92113 | 54 ft | 15 kts | 339° |
| 2026-04-28 12:13 | -8.12679 | -34.92153 | 54 ft | 20 kts | 342° |
| 2026-04-28 12:14 | -8.12534 | -34.92200 | 54 ft | 23 kts | 342° |
| 2026-04-28 12:14 | -8.12360 | -34.92250 | 54 ft | 27 kts | 346° |
| 2026-04-28 12:14 | -8.12188 | -34.92297 | 54 ft | 23 kts | 339° |
| 2026-04-28 12:14 | -8.12036 | -34.92353 | 54 ft | 21 kts | 339° |
| 2026-04-28 12:15 | -8.11901 | -34.92406 | 54 ft | 20 kts | 340° |
| 2026-04-28 12:15 | -8.11765 | -34.92454 | 53 ft | 20 kts | 341° |
| 2026-04-28 12:15 | -8.11632 | -34.92519 | 51 ft | 21 kts | 329° |
| 2026-04-28 12:15 | -8.11513 | -34.92595 | 49 ft | 13 kts | 315° |
| 2026-04-28 12:16 | -8.11526 | -34.92666 | 49 ft | 11 kts | 189° |
| 2026-04-28 12:16 | -8.11584 | -34.92659 | 50 ft | 5 kts | 166° |
| 2026-04-28 12:16 | -8.11733 | -34.92614 | 52 ft | 56 kts | 161° |
| 2026-04-28 12:16 | -8.12337 | -34.92407 | 54 ft | 126 kts | 165° |
| 2026-04-28 12:17 | -8.13348 | -34.92068 | 94 ft | 178 kts | 161° |
| 2026-04-28 12:17 | -8.14570 | -34.91673 | 771 ft | 182 kts | 160° |
| 2026-04-28 12:17 | -8.15680 | -34.91185 | 1681 ft | 172 kts | 133° |
| 2026-04-28 12:17 | -8.16165 | -34.90108 | 2323 ft | 179 kts | 91° |
| 2026-04-28 12:18 | -8.15877 | -34.88853 | 2706 ft | 193 kts | 70° |
| 2026-04-28 12:18 | -8.15338 | -34.87537 | 3016 ft | 211 kts | 70° |
| 2026-04-28 12:18 | -8.14765 | -34.86091 | 3355 ft | 229 kts | 71° |
| 2026-04-28 12:18 | -8.14163 | -34.84517 | 3713 ft | 247 kts | 71° |
| 2026-04-28 12:19 | -8.13537 | -34.82853 | 4216 ft | 258 kts | 71° |
| 2026-04-28 12:19 | -8.12899 | -34.81144 | 4727 ft | 259 kts | 71° |
| 2026-04-28 12:19 | -8.12266 | -34.79436 | 4977 ft | 260 kts | 71° |
| 2026-04-28 12:19 | -8.11629 | -34.77713 | 5003 ft | 260 kts | 71° |
| 2026-04-28 12:20 | -8.11005 | -34.76026 | 5002 ft | 259 kts | 71° |
| 2026-04-28 12:20 | -8.10367 | -34.74294 | 5007 ft | 259 kts | 71° |
| 2026-04-28 12:20 | -8.09744 | -34.72606 | 5004 ft | 259 kts | 71° |
| 2026-04-28 12:20 | -8.08965 | -34.70952 | 4991 ft | 262 kts | 55° |
| 2026-04-28 12:21 | -8.07564 | -34.69696 | 5062 ft | 271 kts | 33° |
| 2026-04-28 12:21 | -8.05973 | -34.68836 | 5594 ft | 276 kts | 31° |
| 2026-04-28 12:21 | -8.04265 | -34.67923 | 6408 ft | 273 kts | 31° |
| 2026-04-28 12:21 | -8.02578 | -34.67018 | 7079 ft | 275 kts | 31° |
| 2026-04-28 12:22 | -8.00872 | -34.66099 | 7704 ft | 278 kts | 31° |
| 2026-04-28 12:22 | -7.99141 | -34.65163 | 8325 ft | 281 kts | 31° |
| 2026-04-28 12:22 | -7.97409 | -34.64226 | 8935 ft | 284 kts | 31° |
| 2026-04-28 12:22 | -7.95651 | -34.63274 | 9531 ft | 287 kts | 31° |
| 2026-04-28 12:23 | -7.93862 | -34.62306 | 10125 ft | 290 kts | 31° |
| 2026-04-28 12:23 | -7.92049 | -34.61324 | 10516 ft | 301 kts | 31° |
| 2026-04-28 12:23 | -7.90161 | -34.60299 | 10772 ft | 316 kts | 31° |
| 2026-04-28 12:23 | -7.88168 | -34.59217 | 11147 ft | 326 kts | 31° |
| 2026-04-28 12:24 | -7.86144 | -34.58122 | 11704 ft | 330 kts | 31° |
| 2026-04-28 12:24 | -7.84129 | -34.57032 | 12296 ft | 332 kts | 31° |
| 2026-04-28 12:24 | -7.82070 | -34.55917 | 12878 ft | 334 kts | 31° |
| 2026-04-28 12:24 | -7.80008 | -34.54800 | 13441 ft | 336 kts | 31° |
| 2026-04-28 12:25 | -7.77931 | -34.53677 | 14004 ft | 339 kts | 31° |
| 2026-04-28 12:25 | -7.75829 | -34.52538 | 14563 ft | 341 kts | 31° |
| 2026-04-28 12:25 | -7.73706 | -34.51388 | 15103 ft | 343 kts | 31° |
| 2026-04-28 12:25 | -7.71591 | -34.50241 | 15629 ft | 346 kts | 31° |
| 2026-04-28 12:26 | -7.69449 | -34.49081 | 16163 ft | 348 kts | 31° |
| 2026-04-28 12:26 | -7.67299 | -34.47917 | 16678 ft | 351 kts | 31° |
| 2026-04-28 12:26 | -7.65121 | -34.46738 | 17195 ft | 353 kts | 31° |
| 2026-04-28 12:26 | -7.62955 | -34.45568 | 17713 ft | 355 kts | 32° |
| 2026-04-28 12:27 | -7.60740 | -34.44369 | 18228 ft | 358 kts | 32° |
| 2026-04-28 12:27 | -7.58517 | -34.43167 | 18745 ft | 360 kts | 32° |
| 2026-04-28 12:27 | -7.56288 | -34.41961 | 19244 ft | 362 kts | 32° |
| 2026-04-28 12:27 | -7.54188 | -34.40826 | 19722 ft | 363 kts | 32° |
| 2026-04-28 12:28 | -7.52017 | -34.39651 | 20197 ft | 365 kts | 33° |
| 2026-04-28 12:28 | -7.49748 | -34.38424 | 20683 ft | 367 kts | 33° |
| 2026-04-28 12:28 | -7.47470 | -34.37191 | 21151 ft | 369 kts | 33° |
| 2026-04-28 12:28 | -7.45172 | -34.35947 | 21599 ft | 371 kts | 33° |
| 2026-04-28 12:29 | -7.40596 | -34.33474 | 22496 ft | 375 kts | 33° |
| 2026-04-28 12:29 | -7.38255 | -34.32205 | 22925 ft | 378 kts | 33° |
| 2026-04-28 12:29 | -7.35925 | -34.30942 | 23336 ft | 380 kts | 33° |
| 2026-04-28 12:30 | -7.33563 | -34.29662 | 23726 ft | 384 kts | 33° |
| 2026-04-28 12:30 | -7.31187 | -34.28377 | 24106 ft | 387 kts | 33° |
| 2026-04-28 12:30 | -7.28770 | -34.27070 | 24475 ft | 390 kts | 33° |
| 2026-04-28 12:30 | -7.26351 | -34.25762 | 24852 ft | 393 kts | 33° |
| 2026-04-28 12:31 | -7.23929 | -34.24454 | 25227 ft | 396 kts | 33° |
| 2026-04-28 12:31 | -7.21489 | -34.23134 | 25574 ft | 399 kts | 33° |
| 2026-04-28 12:31 | -7.19051 | -34.21817 | 25911 ft | 402 kts | 32° |
| 2026-04-28 12:31 | -7.16547 | -34.20464 | 26268 ft | 404 kts | 32° |
| 2026-04-28 12:32 | -7.14051 | -34.19117 | 26609 ft | 407 kts | 32° |
| 2026-04-28 12:32 | -7.11569 | -34.17776 | 26935 ft | 409 kts | 32° |
| 2026-04-28 12:32 | -7.09017 | -34.16398 | 27259 ft | 412 kts | 32° |
| 2026-04-28 12:32 | -7.06480 | -34.15028 | 27574 ft | 415 kts | 31° |
| 2026-04-28 12:33 | -7.03951 | -34.13662 | 27872 ft | 418 kts | 31° |
| 2026-04-28 12:33 | -7.01357 | -34.12264 | 28179 ft | 420 kts | 31° |
| 2026-04-28 12:33 | -6.98749 | -34.10858 | 28485 ft | 423 kts | 31° |
| 2026-04-28 12:33 | -6.96127 | -34.09444 | 28779 ft | 426 kts | 31° |
| 2026-04-28 12:34 | -6.93529 | -34.08042 | 29083 ft | 428 kts | 31° |
| 2026-04-28 12:34 | -6.90861 | -34.06603 | 29396 ft | 431 kts | 31° |
| 2026-04-28 12:34 | -6.88147 | -34.05138 | 29708 ft | 433 kts | 31° |
| 2026-04-28 12:34 | -6.85480 | -34.03699 | 30008 ft | 435 kts | 31° |
| 2026-04-28 12:35 | -6.82791 | -34.02249 | 30303 ft | 438 kts | 31° |
| 2026-04-28 12:35 | -6.80067 | -34.00781 | 30617 ft | 440 kts | 31° |
| 2026-04-28 12:35 | -6.77366 | -33.99324 | 30910 ft | 442 kts | 31° |
| 2026-04-28 12:35 | -6.74630 | -33.97850 | 31210 ft | 444 kts | 30° |
| 2026-04-28 12:36 | -6.71894 | -33.96375 | 31507 ft | 445 kts | 30° |
| 2026-04-28 12:36 | -6.69160 | -33.94902 | 31786 ft | 448 kts | 30° |
| 2026-04-28 12:36 | -6.66360 | -33.93393 | 32066 ft | 450 kts | 30° |
| 2026-04-28 12:36 | -6.63583 | -33.91897 | 32328 ft | 452 kts | 30° |
| 2026-04-28 12:37 | -6.60819 | -33.90409 | 32585 ft | 455 kts | 30° |
| 2026-04-28 12:37 | -6.58015 | -33.88898 | 32860 ft | 457 kts | 30° |
| 2026-04-28 12:37 | -6.55204 | -33.87386 | 33158 ft | 458 kts | 30° |
| 2026-04-28 12:37 | -6.52367 | -33.85859 | 33463 ft | 460 kts | 30° |
| 2026-04-28 12:38 | -6.49535 | -33.84335 | 33774 ft | 461 kts | 30° |
| 2026-04-28 12:38 | -6.46726 | -33.82823 | 34079 ft | 462 kts | 30° |
| 2026-04-28 12:38 | -6.43896 | -33.81301 | 34493 ft | 460 kts | 30° |
| 2026-04-28 12:38 | -6.41048 | -33.79770 | 35000 ft | 457 kts | 30° |
| 2026-04-28 12:39 | -6.38275 | -33.78278 | 35489 ft | 453 kts | 30° |
| 2026-04-28 12:39 | -6.35477 | -33.76771 | 35826 ft | 453 kts | 30° |
| 2026-04-28 12:39 | -6.32697 | -33.75276 | 36062 ft | 454 kts | 30° |
| 2026-04-28 12:39 | -6.29921 | -33.73782 | 36301 ft | 455 kts | 30° |
| 2026-04-28 12:40 | -6.27112 | -33.72271 | 36533 ft | 456 kts | 30° |
| 2026-04-28 12:40 | -6.24293 | -33.70754 | 36767 ft | 457 kts | 30° |
| 2026-04-28 12:40 | -6.21509 | -33.69257 | 36961 ft | 458 kts | 30° |
| 2026-04-28 12:41 | -6.15872 | -33.66226 | 36973 ft | 458 kts | 30° |
| 2026-04-28 12:41 | -6.10226 | -33.63192 | 36974 ft | 458 kts | 30° |
| 2026-04-28 12:42 | -6.04542 | -33.60138 | 36974 ft | 457 kts | 30° |
| 2026-04-28 12:42 | -5.98882 | -33.57096 | 36974 ft | 458 kts | 30° |
| 2026-04-28 12:43 | -5.93241 | -33.54066 | 36971 ft | 458 kts | 30° |
| 2026-04-28 12:43 | -5.87660 | -33.51069 | 36973 ft | 458 kts | 30° |
| 2026-04-28 12:44 | -5.81941 | -33.47998 | 36975 ft | 458 kts | 30° |
| 2026-04-28 12:44 | -5.76255 | -33.44947 | 36976 ft | 458 kts | 30° |
| 2026-04-28 12:45 | -5.70585 | -33.41904 | 36976 ft | 458 kts | 30° |
| 2026-04-28 12:45 | -5.64847 | -33.38825 | 36973 ft | 457 kts | 30° |
| 2026-04-28 12:46 | -5.59132 | -33.35759 | 36974 ft | 457 kts | 30° |
| 2026-04-28 12:46 | -5.53441 | -33.32707 | 36973 ft | 457 kts | 30° |
| 2026-04-28 12:47 | -5.47755 | -33.29659 | 36971 ft | 457 kts | 30° |
| 2026-04-28 12:47 | -5.42067 | -33.26610 | 36960 ft | 456 kts | 30° |
| 2026-04-28 12:48 | -5.36414 | -33.23580 | 36957 ft | 457 kts | 30° |
| 2026-04-28 12:48 | -5.30728 | -33.20533 | 36951 ft | 457 kts | 30° |
| 2026-04-28 12:49 | -5.25091 | -33.17514 | 36948 ft | 457 kts | 30° |
| 2026-04-28 12:49 | -5.19404 | -33.14468 | 36943 ft | 456 kts | 30° |
| 2026-04-28 12:50 | -5.13724 | -33.11425 | 36942 ft | 456 kts | 30° |
| 2026-04-28 12:50 | -5.08056 | -33.08389 | 36946 ft | 456 kts | 30° |
| 2026-04-28 12:51 | -5.02372 | -33.05347 | 36942 ft | 455 kts | 30° |
| 2026-04-28 12:51 | -4.96701 | -33.02314 | 36942 ft | 455 kts | 30° |
| 2026-04-28 12:52 | -4.91080 | -32.99306 | 36944 ft | 454 kts | 30° |
| 2026-04-28 12:52 | -4.85413 | -32.96275 | 36949 ft | 455 kts | 30° |
| 2026-04-28 12:53 | -4.79740 | -32.93240 | 36952 ft | 455 kts | 30° |
| 2026-04-28 12:53 | -4.74120 | -32.90232 | 36954 ft | 456 kts | 30° |
| 2026-04-28 12:54 | -4.68440 | -32.87197 | 36952 ft | 456 kts | 30° |
| 2026-04-28 12:54 | -4.62767 | -32.84165 | 36954 ft | 457 kts | 30° |
| 2026-04-28 12:55 | -4.57069 | -32.81119 | 36958 ft | 457 kts | 30° |
| 2026-04-28 12:55 | -4.51386 | -32.78081 | 36957 ft | 458 kts | 30° |
| 2026-04-28 12:56 | -4.45715 | -32.75052 | 36955 ft | 458 kts | 31° |
| 2026-04-28 12:56 | -4.40042 | -32.72021 | 36957 ft | 458 kts | 30° |
| 2026-04-28 12:57 | -4.34396 | -32.69005 | 36960 ft | 458 kts | 30° |
| 2026-04-28 12:57 | -4.28738 | -32.65986 | 36954 ft | 444 kts | 31° |
| 2026-04-28 12:58 | -4.23304 | -32.63086 | 36958 ft | 440 kts | 30° |
| 2026-04-28 12:58 | -4.17882 | -32.60189 | 36955 ft | 440 kts | 31° |
| 2026-04-28 12:59 | -4.12460 | -32.57293 | 36961 ft | 441 kts | 31° |
| 2026-04-28 12:59 | -4.06991 | -32.54373 | 36959 ft | 442 kts | 30° |
| 2026-04-28 13:00 | -4.01580 | -32.51485 | 36963 ft | 442 kts | 30° |
| 2026-04-28 13:00 | -3.96123 | -32.48574 | 36966 ft | 442 kts | 31° |
| 2026-04-28 13:01 | -3.90683 | -32.45672 | 36971 ft | 442 kts | 31° |
| 2026-04-28 13:01 | -3.85273 | -32.42786 | 36975 ft | 442 kts | 31° |
| 2026-04-28 13:02 | -3.79814 | -32.39902 | 36975 ft | 442 kts | 30° |
| 2026-04-28 13:02 | -3.74368 | -32.37030 | 36969 ft | 442 kts | 30° |
| 2026-04-28 13:03 | -3.68903 | -32.34148 | 36966 ft | 442 kts | 30° |
| 2026-04-28 13:03 | -3.63457 | -32.31273 | 36958 ft | 442 kts | 30° |
| 2026-04-28 13:04 | -3.58006 | -32.28395 | 36952 ft | 442 kts | 31° |
| 2026-04-28 13:04 | -3.52534 | -32.25508 | 36947 ft | 442 kts | 30° |
| 2026-04-28 13:05 | -3.47077 | -32.22627 | 36943 ft | 443 kts | 30° |
| 2026-04-28 13:05 | -3.41619 | -32.19746 | 36942 ft | 442 kts | 30° |
| 2026-04-28 13:06 | -3.36139 | -32.16855 | 36940 ft | 442 kts | 30° |
| 2026-04-28 13:06 | -3.30689 | -32.13979 | 36940 ft | 443 kts | 31° |
| 2026-04-28 13:07 | -3.25223 | -32.11107 | 36940 ft | 443 kts | 30° |
| 2026-04-28 13:07 | -3.19740 | -32.08272 | 36939 ft | 443 kts | 30° |
| 2026-04-28 13:08 | -3.14235 | -32.05426 | 36940 ft | 443 kts | 30° |
| 2026-04-28 13:08 | -3.08724 | -32.02576 | 36939 ft | 444 kts | 30° |
| 2026-04-28 13:09 | -3.03240 | -31.99739 | 36940 ft | 444 kts | 30° |
| 2026-04-28 13:09 | -2.97711 | -31.96878 | 36939 ft | 443 kts | 30° |
| 2026-04-28 13:10 | -2.92230 | -31.94042 | 36939 ft | 443 kts | 30° |
| 2026-04-28 13:10 | -2.86766 | -31.91212 | 36938 ft | 443 kts | 30° |
| 2026-04-28 13:11 | -2.81252 | -31.88359 | 36939 ft | 443 kts | 30° |
| 2026-04-28 13:11 | -2.75721 | -31.85497 | 36938 ft | 443 kts | 30° |
| 2026-04-28 13:12 | -2.70215 | -31.82650 | 36938 ft | 443 kts | 30° |
| 2026-04-28 13:12 | -2.64683 | -31.79789 | 36938 ft | 442 kts | 30° |
| 2026-04-28 13:13 | -2.59205 | -31.76954 | 36939 ft | 442 kts | 30° |
| 2026-04-28 13:13 | -2.53688 | -31.74102 | 36937 ft | 442 kts | 30° |
| 2026-04-28 13:14 | -2.48163 | -31.71244 | 36938 ft | 443 kts | 30° |
| 2026-04-28 13:14 | -2.42661 | -31.68400 | 36939 ft | 442 kts | 30° |
| 2026-04-28 13:15 | -2.37155 | -31.65552 | 36939 ft | 443 kts | 30° |
| 2026-04-28 13:15 | -2.31612 | -31.62688 | 36939 ft | 443 kts | 30° |
| 2026-04-28 13:16 | -2.26111 | -31.59845 | 36938 ft | 443 kts | 30° |
| 2026-04-28 13:16 | -2.20617 | -31.57005 | 36938 ft | 443 kts | 30° |
| 2026-04-28 13:17 | -2.15104 | -31.54155 | 36939 ft | 444 kts | 30° |
| 2026-04-28 13:17 | -2.09880 | -31.51455 | 36939 ft | 444 kts | 30° |
| 2026-04-28 13:18 | -2.04364 | -31.48605 | 36938 ft | 444 kts | 30° |
| 2026-04-28 13:18 | -1.98866 | -31.45764 | 36939 ft | 444 kts | 30° |
| 2026-04-28 13:19 | -1.93365 | -31.42923 | 36940 ft | 444 kts | 30° |
| 2026-04-28 13:19 | -1.87874 | -31.40084 | 36939 ft | 445 kts | 30° |
| 2026-04-28 13:20 | -1.82320 | -31.37216 | 36940 ft | 445 kts | 30° |
| 2026-04-28 13:20 | -1.77130 | -31.34536 | 36940 ft | 445 kts | 30° |
| 2026-04-28 13:21 | -1.71635 | -31.31696 | 36940 ft | 445 kts | 30° |
| 2026-04-28 13:21 | -1.66127 | -31.28851 | 36940 ft | 444 kts | 30° |
| 2026-04-28 13:22 | -1.60620 | -31.26007 | 36939 ft | 444 kts | 30° |
| 2026-04-28 13:22 | -1.55106 | -31.23159 | 36939 ft | 444 kts | 30° |
| 2026-04-28 13:23 | -1.49745 | -31.20392 | 36939 ft | 444 kts | 30° |
| 2026-04-28 13:23 | -1.44314 | -31.17587 | 36939 ft | 444 kts | 30° |
| 2026-04-28 13:24 | -1.38793 | -31.14736 | 36941 ft | 444 kts | 30° |
| 2026-04-28 13:24 | -1.33280 | -31.11890 | 36942 ft | 444 kts | 30° |
| 2026-04-28 13:25 | -1.27769 | -31.09043 | 36941 ft | 443 kts | 30° |
| 2026-04-28 13:25 | -1.22269 | -31.06204 | 36940 ft | 443 kts | 30° |
| 2026-04-28 13:26 | -1.16739 | -31.03350 | 36943 ft | 443 kts | 30° |
| 2026-04-28 13:26 | -1.11263 | -31.00522 | 36950 ft | 443 kts | 30° |
| 2026-04-28 13:27 | -1.05788 | -30.97696 | 36957 ft | 443 kts | 30° |
| 2026-04-28 13:27 | -1.00287 | -30.94855 | 36958 ft | 443 kts | 30° |
| 2026-04-28 13:28 | -0.94773 | -30.92008 | 36956 ft | 443 kts | 30° |
| 2026-04-28 13:28 | -0.89288 | -30.89175 | 36955 ft | 443 kts | 30° |
| 2026-04-28 13:29 | -0.83803 | -30.86341 | 36951 ft | 443 kts | 30° |
| 2026-04-28 13:29 | -0.78321 | -30.83506 | 36941 ft | 443 kts | 30° |
| 2026-04-28 13:30 | -0.72847 | -30.80676 | 36936 ft | 443 kts | 30° |
| 2026-04-28 13:30 | -0.67371 | -30.77844 | 36937 ft | 444 kts | 30° |
| 2026-04-28 13:31 | -0.59125 | -30.73581 | 36939 ft | 444 kts | 30° |
| 2026-04-28 13:31 | -0.53614 | -30.70732 | 36939 ft | 444 kts | 30° |
| 2026-04-28 13:32 | -0.48093 | -30.67876 | 36939 ft | 445 kts | 30° |
| 2026-04-28 13:32 | -0.42555 | -30.65013 | 36939 ft | 446 kts | 30° |
| 2026-04-28 13:33 | -0.37053 | -30.62168 | 36939 ft | 446 kts | 30° |
| 2026-04-28 13:33 | -0.31562 | -30.59331 | 36939 ft | 437 kts | 30° |
| 2026-04-28 13:34 | -0.26176 | -30.56547 | 36939 ft | 435 kts | 30° |
| 2026-04-28 13:34 | -0.20776 | -30.53754 | 36939 ft | 435 kts | 30° |
| 2026-04-28 13:35 | -0.15377 | -30.50962 | 36939 ft | 435 kts | 30° |
| 2026-04-28 13:35 | -0.10002 | -30.48183 | 36939 ft | 436 kts | 30° |
| 2026-04-28 13:36 | -0.04600 | -30.45389 | 36939 ft | 436 kts | 30° |
| 2026-04-28 13:36 | 0.00817 | -30.42587 | 36939 ft | 437 kts | 30° |
| 2026-04-28 13:37 | 0.06239 | -30.39785 | 36939 ft | 437 kts | 30° |
| 2026-04-28 13:37 | 0.11645 | -30.36990 | 36938 ft | 436 kts | 30° |
| 2026-04-28 13:38 | 0.17082 | -30.34176 | 36940 ft | 436 kts | 30° |
| 2026-04-28 13:38 | 0.22517 | -30.31367 | 36939 ft | 436 kts | 30° |
| 2026-04-28 13:39 | 0.28021 | -30.28522 | 36939 ft | 435 kts | 30° |
| 2026-04-28 13:39 | 0.33503 | -30.25688 | 36939 ft | 435 kts | 30° |
| 2026-04-28 13:40 | 0.38989 | -30.22851 | 36939 ft | 435 kts | 30° |
| 2026-04-28 13:40 | 0.44406 | -30.20050 | 36939 ft | 435 kts | 30° |
| 2026-04-28 13:41 | 0.49900 | -30.17206 | 36939 ft | 435 kts | 30° |
| 2026-04-28 13:41 | 0.55348 | -30.14388 | 36939 ft | 435 kts | 30° |
| 2026-04-28 13:42 | 0.60828 | -30.11553 | 36939 ft | 435 kts | 30° |
| 2026-04-28 13:42 | 0.66242 | -30.08753 | 36939 ft | 435 kts | 30° |
| 2026-04-28 13:43 | 0.71712 | -30.05924 | 36939 ft | 435 kts | 30° |
| 2026-04-28 13:43 | 0.77167 | -30.03101 | 36939 ft | 435 kts | 30° |
| 2026-04-28 13:44 | 0.82605 | -30.00286 | 36938 ft | 435 kts | 30° |
| 2026-04-28 13:44 | 0.88063 | -29.97463 | 36939 ft | 436 kts | 30° |
| 2026-04-28 13:45 | 0.93513 | -29.94643 | 36939 ft | 435 kts | 30° |
| 2026-04-28 13:45 | 0.98925 | -29.91844 | 36937 ft | 434 kts | 30° |
| 2026-04-28 13:46 | 1.04375 | -29.89022 | 36929 ft | 435 kts | 30° |
| 2026-04-28 13:46 | 1.09805 | -29.86213 | 36920 ft | 434 kts | 30° |
| 2026-04-28 13:47 | 1.15286 | -29.83375 | 36919 ft | 434 kts | 30° |
| 2026-04-28 13:47 | 1.20712 | -29.80568 | 36919 ft | 434 kts | 30° |
| 2026-04-28 13:48 | 1.26158 | -29.77748 | 36918 ft | 435 kts | 30° |
| 2026-04-28 13:48 | 1.31602 | -29.74931 | 36918 ft | 435 kts | 30° |
| 2026-04-28 13:49 | 1.37071 | -29.72100 | 36916 ft | 435 kts | 31° |
| 2026-04-28 13:49 | 1.42524 | -29.69266 | 36917 ft | 435 kts | 31° |
| 2026-04-28 13:50 | 1.47955 | -29.66422 | 36917 ft | 435 kts | 31° |
| 2026-04-28 13:50 | 1.53367 | -29.63587 | 36918 ft | 435 kts | 31° |
| 2026-04-28 13:51 | 1.58818 | -29.60733 | 36917 ft | 436 kts | 31° |
| 2026-04-28 13:51 | 1.64273 | -29.57877 | 36919 ft | 436 kts | 31° |
| 2026-04-28 13:52 | 1.69733 | -29.55018 | 36918 ft | 436 kts | 31° |
| 2026-04-28 13:52 | 1.75172 | -29.52169 | 36920 ft | 436 kts | 31° |
| 2026-04-28 13:53 | 1.80615 | -29.49318 | 36927 ft | 436 kts | 31° |
| 2026-04-28 13:53 | 1.86049 | -29.46472 | 36936 ft | 436 kts | 31° |
| 2026-04-28 13:54 | 1.91510 | -29.43613 | 36937 ft | 436 kts | 31° |
| 2026-04-28 13:54 | 1.96985 | -29.40744 | 36940 ft | 436 kts | 31° |
| 2026-04-28 13:55 | 2.02439 | -29.37887 | 36939 ft | 436 kts | 31° |
| 2026-04-28 13:55 | 2.07863 | -29.35045 | 36942 ft | 436 kts | 31° |
| 2026-04-28 13:56 | 2.13335 | -29.32179 | 36941 ft | 437 kts | 31° |
| 2026-04-28 13:56 | 2.18788 | -29.29322 | 36938 ft | 437 kts | 31° |
| 2026-04-28 13:57 | 2.24279 | -29.26445 | 36939 ft | 437 kts | 31° |
| 2026-04-28 13:57 | 2.29718 | -29.23594 | 36942 ft | 437 kts | 31° |
| 2026-04-28 13:58 | 2.35184 | -29.20729 | 36939 ft | 437 kts | 31° |
| 2026-04-28 13:58 | 2.40662 | -29.17856 | 36940 ft | 438 kts | 30° |
| 2026-04-28 13:59 | 2.46136 | -29.14988 | 36938 ft | 438 kts | 30° |
| 2026-04-28 13:59 | 2.51598 | -29.12126 | 36940 ft | 439 kts | 31° |
| 2026-04-28 14:00 | 2.57111 | -29.09235 | 36939 ft | 438 kts | 30° |
| 2026-04-28 14:00 | 2.62533 | -29.06391 | 36940 ft | 438 kts | 30° |
| 2026-04-28 14:01 | 2.68002 | -29.03523 | 36940 ft | 438 kts | 30° |
| 2026-04-28 14:01 | 2.73499 | -29.00640 | 36939 ft | 438 kts | 30° |
| 2026-04-28 14:02 | 2.78991 | -28.97760 | 36939 ft | 439 kts | 30° |
| 2026-04-28 14:02 | 2.84491 | -28.94874 | 36938 ft | 440 kts | 30° |
| 2026-04-28 14:03 | 2.90023 | -28.91972 | 36935 ft | 440 kts | 30° |
| 2026-04-28 14:03 | 2.95481 | -28.89108 | 36939 ft | 440 kts | 30° |
| 2026-04-28 14:04 | 3.01007 | -28.86208 | 36938 ft | 439 kts | 30° |
| 2026-04-28 14:04 | 3.06459 | -28.83347 | 36938 ft | 440 kts | 30° |
| 2026-04-28 14:05 | 3.11955 | -28.80461 | 36938 ft | 440 kts | 30° |
| 2026-04-28 14:05 | 3.17434 | -28.77594 | 36938 ft | 440 kts | 30° |
| 2026-04-28 14:06 | 3.22922 | -28.74726 | 36939 ft | 440 kts | 30° |
| 2026-04-28 14:06 | 3.28394 | -28.71866 | 36938 ft | 440 kts | 30° |
| 2026-04-28 14:07 | 3.33897 | -28.68987 | 36935 ft | 440 kts | 30° |
| 2026-04-28 14:07 | 3.39373 | -28.66122 | 36931 ft | 440 kts | 30° |
| 2026-04-28 14:08 | 3.44802 | -28.63281 | 36929 ft | 440 kts | 30° |
| 2026-04-28 14:08 | 3.50246 | -28.60432 | 36928 ft | 440 kts | 30° |
| 2026-04-28 14:09 | 3.55695 | -28.57580 | 36927 ft | 440 kts | 30° |
| 2026-04-28 14:09 | 3.61142 | -28.54729 | 36926 ft | 440 kts | 30° |
| 2026-04-28 14:10 | 3.66591 | -28.51876 | 36925 ft | 440 kts | 30° |
| 2026-04-28 14:10 | 3.72017 | -28.49036 | 36924 ft | 441 kts | 30° |
| 2026-04-28 14:11 | 3.77489 | -28.46171 | 36920 ft | 441 kts | 30° |
| 2026-04-28 14:11 | 3.82932 | -28.43320 | 36923 ft | 441 kts | 30° |
| 2026-04-28 14:12 | 3.88357 | -28.40477 | 36932 ft | 441 kts | 30° |
| 2026-04-28 14:12 | 3.93843 | -28.37602 | 36939 ft | 442 kts | 30° |
| 2026-04-28 14:13 | 3.99305 | -28.34741 | 36939 ft | 441 kts | 30° |
| 2026-04-28 14:13 | 4.04751 | -28.31886 | 36941 ft | 441 kts | 31° |
| 2026-04-28 14:14 | 4.10178 | -28.29042 | 36941 ft | 442 kts | 30° |
| 2026-04-28 14:14 | 4.15655 | -28.26171 | 36941 ft | 442 kts | 31° |
| 2026-04-28 14:15 | 4.21104 | -28.23313 | 36942 ft | 443 kts | 31° |
| 2026-04-28 14:15 | 4.26619 | -28.20421 | 36942 ft | 444 kts | 31° |
| 2026-04-28 14:16 | 4.32073 | -28.17559 | 36940 ft | 443 kts | 30° |
| 2026-04-28 14:16 | 4.37540 | -28.14693 | 36939 ft | 443 kts | 30° |
| 2026-04-28 14:17 | 4.43028 | -28.11814 | 36939 ft | 443 kts | 30° |
| 2026-04-28 14:17 | 4.48488 | -28.08948 | 36940 ft | 443 kts | 30° |
| 2026-04-28 14:18 | 4.53988 | -28.06061 | 36938 ft | 443 kts | 30° |
| 2026-04-28 14:18 | 4.59427 | -28.03208 | 36939 ft | 444 kts | 30° |
| 2026-04-28 14:19 | 4.64914 | -28.00327 | 36938 ft | 444 kts | 30° |
| 2026-04-28 14:19 | 4.70425 | -27.97432 | 36938 ft | 445 kts | 30° |
| 2026-04-28 14:20 | 4.75912 | -27.94551 | 36939 ft | 445 kts | 30° |
| 2026-04-28 14:20 | 4.81374 | -27.91681 | 36938 ft | 444 kts | 30° |
| 2026-04-28 14:21 | 4.86884 | -27.88784 | 36938 ft | 444 kts | 30° |
| 2026-04-28 14:21 | 4.92365 | -27.85906 | 36938 ft | 444 kts | 30° |
| 2026-04-28 14:22 | 4.97838 | -27.83031 | 36939 ft | 444 kts | 30° |
| 2026-04-28 14:22 | 5.03345 | -27.80135 | 36939 ft | 445 kts | 30° |
| 2026-04-28 14:23 | 5.08861 | -27.77235 | 36940 ft | 446 kts | 30° |
| 2026-04-28 14:23 | 5.14352 | -27.74348 | 36940 ft | 446 kts | 30° |
| 2026-04-28 14:24 | 5.19861 | -27.71448 | 36943 ft | 446 kts | 30° |
| 2026-04-28 14:24 | 5.25365 | -27.68553 | 36944 ft | 445 kts | 30° |
| 2026-04-28 14:25 | 5.30904 | -27.65639 | 36943 ft | 445 kts | 30° |
| 2026-04-28 14:25 | 5.36383 | -27.62756 | 36944 ft | 445 kts | 30° |
| 2026-04-28 14:26 | 5.41898 | -27.59851 | 36944 ft | 445 kts | 30° |
| 2026-04-28 14:26 | 5.47386 | -27.56962 | 36944 ft | 446 kts | 30° |
| 2026-04-28 14:27 | 5.52904 | -27.54056 | 36944 ft | 446 kts | 30° |
| 2026-04-28 14:27 | 5.58389 | -27.51167 | 36945 ft | 446 kts | 30° |
| 2026-04-28 14:28 | 5.63905 | -27.48261 | 36945 ft | 446 kts | 30° |
| 2026-04-28 14:28 | 5.69423 | -27.45353 | 36944 ft | 446 kts | 30° |
| 2026-04-28 14:29 | 5.74961 | -27.42434 | 36941 ft | 446 kts | 30° |
| 2026-04-28 14:29 | 5.80460 | -27.39536 | 36939 ft | 447 kts | 30° |
| 2026-04-28 14:30 | 5.86016 | -27.36604 | 36939 ft | 446 kts | 30° |
| 2026-04-28 14:30 | 5.91564 | -27.33680 | 36940 ft | 447 kts | 30° |
| 2026-04-28 14:31 | 5.97151 | -27.30732 | 36939 ft | 447 kts | 30° |
| 2026-04-28 14:31 | 6.02719 | -27.27794 | 36939 ft | 447 kts | 30° |
| 2026-04-28 14:32 | 6.08236 | -27.24881 | 36941 ft | 446 kts | 30° |
| 2026-04-28 14:32 | 6.13764 | -27.21962 | 36941 ft | 447 kts | 30° |
| 2026-04-28 14:33 | 6.19216 | -27.19082 | 36941 ft | 447 kts | 30° |
| 2026-04-28 14:33 | 6.24767 | -27.16150 | 36942 ft | 448 kts | 30° |
| 2026-04-28 14:34 | 6.33054 | -27.11773 | 36946 ft | 448 kts | 30° |
| 2026-04-28 14:35 | 6.38569 | -27.08857 | 36947 ft | 447 kts | 30° |
| 2026-04-28 14:35 | 6.44079 | -27.05943 | 36950 ft | 447 kts | 30° |
| 2026-04-28 14:36 | 6.49605 | -27.03021 | 36956 ft | 448 kts | 30° |
| 2026-04-28 14:36 | 6.55141 | -27.00092 | 36959 ft | 448 kts | 30° |
| 2026-04-28 14:37 | 6.60679 | -26.97158 | 36960 ft | 448 kts | 30° |
| 2026-04-28 14:37 | 6.66219 | -26.94226 | 36960 ft | 448 kts | 30° |
| 2026-04-28 14:38 | 6.71769 | -26.91284 | 36961 ft | 448 kts | 30° |
| 2026-04-28 14:38 | 6.77304 | -26.88352 | 36960 ft | 448 kts | 30° |
| 2026-04-28 14:39 | 6.82806 | -26.85436 | 36960 ft | 448 kts | 30° |
| 2026-04-28 14:39 | 6.88335 | -26.82507 | 36960 ft | 447 kts | 30° |
| 2026-04-28 14:40 | 6.93919 | -26.79545 | 36960 ft | 448 kts | 30° |
| 2026-04-28 14:40 | 6.99436 | -26.76617 | 36960 ft | 448 kts | 30° |
| 2026-04-28 14:41 | 7.05091 | -26.73619 | 36960 ft | 448 kts | 30° |
| 2026-04-28 14:41 | 7.10678 | -26.70653 | 36959 ft | 448 kts | 30° |
| 2026-04-28 14:42 | 7.16275 | -26.67683 | 36960 ft | 449 kts | 30° |
| 2026-04-28 14:42 | 7.21871 | -26.64712 | 36959 ft | 449 kts | 30° |
| 2026-04-28 14:43 | 7.27489 | -26.61726 | 36960 ft | 448 kts | 30° |
| 2026-04-28 14:43 | 7.33069 | -26.58763 | 36959 ft | 448 kts | 30° |
| 2026-04-28 14:44 | 7.38706 | -26.55766 | 36960 ft | 448 kts | 30° |
| 2026-04-28 14:44 | 7.44328 | -26.52777 | 36959 ft | 448 kts | 29° |
| 2026-04-28 14:45 | 7.49952 | -26.49789 | 36960 ft | 448 kts | 30° |
| 2026-04-28 14:45 | 7.55525 | -26.46825 | 36959 ft | 448 kts | 30° |
| 2026-04-28 14:46 | 7.61164 | -26.43823 | 36956 ft | 448 kts | 30° |
| 2026-04-28 14:46 | 7.66743 | -26.40854 | 36956 ft | 448 kts | 29° |
| 2026-04-28 14:47 | 7.72326 | -26.37881 | 36958 ft | 448 kts | 29° |
| 2026-04-28 14:47 | 7.77935 | -26.34893 | 36958 ft | 448 kts | 29° |
| 2026-04-28 14:48 | 7.83508 | -26.31925 | 36957 ft | 447 kts | 29° |
| 2026-04-28 14:48 | 7.89103 | -26.28945 | 36959 ft | 448 kts | 29° |
| 2026-04-28 14:49 | 7.94675 | -26.25974 | 36959 ft | 448 kts | 29° |
| 2026-04-28 14:49 | 8.00301 | -26.22975 | 36959 ft | 448 kts | 29° |
| 2026-04-28 14:50 | 8.05843 | -26.20019 | 36960 ft | 449 kts | 29° |
| 2026-04-28 14:50 | 8.11469 | -26.17016 | 36959 ft | 449 kts | 29° |
| 2026-04-28 14:51 | 8.17105 | -26.14009 | 36959 ft | 449 kts | 29° |
| 2026-04-28 14:51 | 8.22720 | -26.11011 | 36951 ft | 449 kts | 29° |
| 2026-04-28 14:52 | 8.28331 | -26.08015 | 36949 ft | 449 kts | 29° |
| 2026-04-28 14:52 | 8.33917 | -26.05030 | 36962 ft | 450 kts | 29° |
| 2026-04-28 14:53 | 8.39355 | -26.02127 | 36959 ft | 451 kts | 29° |
| 2026-04-28 14:53 | 8.44980 | -25.99121 | 36958 ft | 451 kts | 29° |
| 2026-04-28 14:54 | 8.50646 | -25.96093 | 36953 ft | 451 kts | 29° |
| 2026-04-28 14:54 | 8.56300 | -25.93070 | 36952 ft | 451 kts | 29° |
| 2026-04-28 14:55 | 8.61961 | -25.90044 | 36952 ft | 452 kts | 29° |
| 2026-04-28 14:55 | 8.67588 | -25.87034 | 36956 ft | 453 kts | 29° |
| 2026-04-28 14:56 | 8.73243 | -25.84008 | 36951 ft | 453 kts | 29° |
| 2026-04-28 14:56 | 8.78914 | -25.80970 | 36953 ft | 453 kts | 29° |
| 2026-04-28 14:57 | 8.84588 | -25.77931 | 36949 ft | 454 kts | 28° |
| 2026-04-28 14:57 | 8.90246 | -25.74901 | 36954 ft | 454 kts | 29° |
| 2026-04-28 14:58 | 8.95905 | -25.71869 | 36953 ft | 455 kts | 28° |
| 2026-04-28 14:58 | 9.01593 | -25.68819 | 36955 ft | 455 kts | 28° |
| 2026-04-28 14:59 | 9.07250 | -25.65786 | 36954 ft | 455 kts | 28° |
| 2026-04-28 14:59 | 9.12952 | -25.62727 | 36951 ft | 456 kts | 28° |
| 2026-04-28 15:00 | 9.18622 | -25.59682 | 36951 ft | 456 kts | 28° |
| 2026-04-28 15:00 | 9.24238 | -25.56668 | 36952 ft | 457 kts | 28° |
| 2026-04-28 15:01 | 9.29930 | -25.53610 | 36953 ft | 455 kts | 28° |
| 2026-04-28 15:01 | 9.35638 | -25.50544 | 36951 ft | 456 kts | 28° |
| 2026-04-28 15:02 | 9.41288 | -25.47508 | 36949 ft | 456 kts | 28° |
| 2026-04-28 15:02 | 9.46970 | -25.44453 | 36955 ft | 456 kts | 28° |
| 2026-04-28 15:03 | 9.52651 | -25.41397 | 36968 ft | 458 kts | 28° |
| 2026-04-28 15:03 | 9.58391 | -25.38309 | 36970 ft | 457 kts | 28° |
| 2026-04-28 15:04 | 9.64066 | -25.35254 | 36973 ft | 457 kts | 28° |
| 2026-04-28 15:04 | 9.69793 | -25.32171 | 36976 ft | 457 kts | 28° |
| 2026-04-28 15:05 | 9.75495 | -25.29098 | 36976 ft | 458 kts | 28° |
| 2026-04-28 15:05 | 9.81184 | -25.26032 | 36980 ft | 458 kts | 28° |
| 2026-04-28 15:06 | 9.86956 | -25.22921 | 36977 ft | 457 kts | 28° |
| 2026-04-28 15:06 | 9.92612 | -25.19869 | 36979 ft | 457 kts | 28° |
| 2026-04-28 15:07 | 9.98315 | -25.16790 | 36981 ft | 458 kts | 28° |
| 2026-04-28 15:07 | 10.04006 | -25.13714 | 36971 ft | 457 kts | 28° |
| 2026-04-28 15:08 | 10.09690 | -25.10641 | 36959 ft | 456 kts | 28° |
| 2026-04-28 15:08 | 10.15362 | -25.07575 | 36959 ft | 456 kts | 28° |
| 2026-04-28 15:09 | 10.21045 | -25.04501 | 36956 ft | 457 kts | 28° |
| 2026-04-28 15:09 | 10.26732 | -25.01423 | 36957 ft | 457 kts | 28° |
| 2026-04-28 15:10 | 10.32436 | -24.98334 | 36958 ft | 457 kts | 28° |
| 2026-04-28 15:10 | 10.38144 | -24.95244 | 36957 ft | 456 kts | 27° |
| 2026-04-28 15:11 | 10.43835 | -24.92160 | 36957 ft | 456 kts | 27° |
| 2026-04-28 15:11 | 10.49526 | -24.89076 | 36956 ft | 456 kts | 27° |
| 2026-04-28 15:12 | 10.55204 | -24.85996 | 36960 ft | 456 kts | 27° |
| 2026-04-28 15:12 | 10.60866 | -24.82925 | 36964 ft | 456 kts | 27° |
| 2026-04-28 15:13 | 10.66494 | -24.79870 | 36967 ft | 456 kts | 27° |
| 2026-04-28 15:13 | 10.72182 | -24.76782 | 36969 ft | 456 kts | 27° |
| 2026-04-28 15:14 | 10.77870 | -24.73692 | 36974 ft | 456 kts | 27° |
| 2026-04-28 15:14 | 10.83533 | -24.70615 | 36974 ft | 455 kts | 27° |
| 2026-04-28 15:15 | 10.89184 | -24.67543 | 36978 ft | 455 kts | 27° |
| 2026-04-28 15:15 | 10.94846 | -24.64462 | 36978 ft | 455 kts | 27° |
| 2026-04-28 15:16 | 11.00512 | -24.61378 | 36977 ft | 455 kts | 27° |
| 2026-04-28 15:16 | 11.06195 | -24.58285 | 36979 ft | 455 kts | 27° |
| 2026-04-28 15:17 | 11.11879 | -24.55189 | 36979 ft | 456 kts | 27° |
| 2026-04-28 15:17 | 11.17583 | -24.52081 | 36980 ft | 456 kts | 27° |
| 2026-04-28 15:18 | 11.23254 | -24.48988 | 36980 ft | 457 kts | 27° |
| 2026-04-28 15:18 | 11.28917 | -24.45901 | 36980 ft | 456 kts | 27° |
| 2026-04-28 15:19 | 11.34610 | -24.42795 | 36980 ft | 456 kts | 27° |
| 2026-04-28 15:19 | 11.40278 | -24.39699 | 36981 ft | 457 kts | 27° |
| 2026-04-28 15:20 | 11.45930 | -24.36613 | 36980 ft | 456 kts | 27° |
| 2026-04-28 15:20 | 11.51606 | -24.33514 | 36979 ft | 456 kts | 27° |
| 2026-04-28 15:21 | 11.57245 | -24.30430 | 36980 ft | 457 kts | 27° |
| 2026-04-28 15:21 | 11.62936 | -24.27317 | 36980 ft | 457 kts | 26° |
| 2026-04-28 15:22 | 11.68622 | -24.24207 | 36979 ft | 457 kts | 26° |
| 2026-04-28 15:22 | 11.74330 | -24.21081 | 36976 ft | 457 kts | 26° |
| 2026-04-28 15:23 | 11.79988 | -24.17984 | 36973 ft | 457 kts | 26° |
| 2026-04-28 15:23 | 11.85681 | -24.14865 | 36965 ft | 456 kts | 26° |
| 2026-04-28 15:24 | 11.91358 | -24.11752 | 36961 ft | 456 kts | 26° |
| 2026-04-28 15:24 | 11.96995 | -24.08661 | 36960 ft | 455 kts | 26° |
| 2026-04-28 15:25 | 12.02681 | -24.05542 | 36960 ft | 455 kts | 26° |
| 2026-04-28 15:25 | 12.08332 | -24.02440 | 36960 ft | 455 kts | 26° |
| 2026-04-28 15:26 | 12.13994 | -23.99330 | 36961 ft | 455 kts | 26° |
| 2026-04-28 15:26 | 12.19650 | -23.96221 | 36961 ft | 455 kts | 26° |
| 2026-04-28 15:27 | 12.25319 | -23.93106 | 36965 ft | 454 kts | 26° |
| 2026-04-28 15:27 | 12.30970 | -23.89999 | 36962 ft | 455 kts | 26° |
| 2026-04-28 15:28 | 12.36594 | -23.86903 | 36965 ft | 454 kts | 26° |
| 2026-04-28 15:28 | 12.42251 | -23.83787 | 36968 ft | 453 kts | 26° |
| 2026-04-28 15:29 | 12.47874 | -23.80691 | 36966 ft | 452 kts | 26° |
| 2026-04-28 15:29 | 12.53530 | -23.77575 | 36968 ft | 452 kts | 26° |
| 2026-04-28 15:30 | 12.59156 | -23.74471 | 36968 ft | 452 kts | 26° |
| 2026-04-28 15:30 | 12.64784 | -23.71366 | 36970 ft | 451 kts | 26° |
| 2026-04-28 15:31 | 12.70365 | -23.68286 | 36970 ft | 451 kts | 26° |
| 2026-04-28 15:31 | 12.75995 | -23.65177 | 36971 ft | 450 kts | 25° |
| 2026-04-28 15:32 | 12.81607 | -23.62077 | 36971 ft | 449 kts | 25° |
| 2026-04-28 15:32 | 12.87167 | -23.59004 | 36971 ft | 449 kts | 25° |
| 2026-04-28 15:33 | 12.92711 | -23.55937 | 36973 ft | 449 kts | 25° |
| 2026-04-28 15:33 | 12.98274 | -23.52859 | 36978 ft | 449 kts | 25° |
| 2026-04-28 15:34 | 13.03866 | -23.49763 | 36979 ft | 448 kts | 25° |
| 2026-04-28 15:34 | 13.09417 | -23.46688 | 36980 ft | 449 kts | 25° |
| 2026-04-28 15:35 | 13.14979 | -23.43605 | 36980 ft | 448 kts | 25° |
| 2026-04-28 15:35 | 13.23312 | -23.38985 | 36981 ft | 448 kts | 25° |
| 2026-04-28 15:36 | 13.28919 | -23.35874 | 36981 ft | 447 kts | 25° |
| 2026-04-28 15:36 | 13.34441 | -23.32809 | 36979 ft | 447 kts | 25° |
| 2026-04-28 15:37 | 13.40025 | -23.29705 | 36980 ft | 448 kts | 25° |
| 2026-04-28 15:37 | 13.44747 | -23.27313 | 36979 ft | 445 kts | 18° |
| 2026-04-28 15:38 | 13.51732 | -23.25502 | 36980 ft | 438 kts | 3° |
| 2026-04-28 15:38 | 13.57872 | -23.25463 | 36981 ft | 441 kts | 350° |
| 2026-04-28 15:39 | 13.64114 | -23.26433 | 36981 ft | 453 kts | 347° |
| 2026-04-28 15:39 | 13.70441 | -23.27508 | 36979 ft | 459 kts | 347° |
| 2026-04-28 15:40 | 13.74362 | -23.28167 | 36980 ft | 459 kts | 348° |
| 2026-04-28 15:47 | 13.75816 | -23.28410 | 36980 ft | 459 kts | 348° |
| 2026-04-28 16:00 | 13.76969 | -23.28603 | 36980 ft | 459 kts | 348° |
| 2026-04-28 16:00 | 13.83306 | -23.29661 | 36981 ft | 459 kts | 348° |
| 2026-04-28 16:01 | 13.89614 | -23.30712 | 36978 ft | 459 kts | 348° |
| 2026-04-28 16:01 | 13.92760 | -23.31236 | 36713 ft | 459 kts | 347° |
| 2026-04-28 16:01 | 13.95931 | -23.31765 | 36384 ft | 456 kts | 347° |
| 2026-04-28 16:02 | 13.99056 | -23.32285 | 35953 ft | 453 kts | 347° |
| 2026-04-28 16:02 | 14.02156 | -23.32802 | 35463 ft | 450 kts | 347° |
| 2026-04-28 16:02 | 14.05249 | -23.33318 | 34942 ft | 448 kts | 347° |
| 2026-04-28 16:02 | 14.08344 | -23.33835 | 34395 ft | 446 kts | 347° |
| 2026-04-28 16:03 | 14.11414 | -23.34347 | 33839 ft | 445 kts | 347° |
| 2026-04-28 16:03 | 14.14475 | -23.34859 | 33337 ft | 442 kts | 347° |
| 2026-04-28 16:03 | 14.17526 | -23.35369 | 33009 ft | 443 kts | 347° |
| 2026-04-28 16:03 | 14.20530 | -23.35872 | 32675 ft | 441 kts | 347° |
| 2026-04-28 16:04 | 14.23575 | -23.36381 | 32348 ft | 438 kts | 347° |
| 2026-04-28 16:04 | 14.26564 | -23.36880 | 32021 ft | 436 kts | 347° |
| 2026-04-28 16:04 | 14.29573 | -23.37383 | 31693 ft | 433 kts | 347° |
| 2026-04-28 16:04 | 14.32534 | -23.37878 | 31361 ft | 431 kts | 347° |
| 2026-04-28 16:05 | 14.35508 | -23.38376 | 31009 ft | 428 kts | 347° |
| 2026-04-28 16:05 | 14.38444 | -23.38867 | 30657 ft | 426 kts | 347° |
| 2026-04-28 16:05 | 14.41367 | -23.39357 | 30298 ft | 423 kts | 347° |
| 2026-04-28 16:05 | 14.44259 | -23.39841 | 29961 ft | 420 kts | 347° |
| 2026-04-28 16:06 | 14.47145 | -23.40325 | 29622 ft | 416 kts | 347° |
| 2026-04-28 16:06 | 14.49982 | -23.40801 | 29282 ft | 414 kts | 347° |
| 2026-04-28 16:06 | 14.52804 | -23.41274 | 28947 ft | 411 kts | 347° |
| 2026-04-28 16:06 | 14.55632 | -23.41748 | 28596 ft | 408 kts | 347° |
| 2026-04-28 16:07 | 14.58451 | -23.42223 | 28240 ft | 405 kts | 347° |
| 2026-04-28 16:07 | 14.61224 | -23.42688 | 27911 ft | 401 kts | 347° |
| 2026-04-28 16:07 | 14.66676 | -23.43604 | 27231 ft | 395 kts | 347° |
| 2026-04-28 16:08 | 14.69407 | -23.44063 | 26854 ft | 393 kts | 347° |
| 2026-04-28 16:08 | 14.72101 | -23.44518 | 26463 ft | 391 kts | 347° |
| 2026-04-28 16:08 | 14.74758 | -23.44965 | 26116 ft | 387 kts | 347° |
| 2026-04-28 16:09 | 14.80061 | -23.45857 | 25422 ft | 381 kts | 347° |
| 2026-04-28 16:09 | 14.82653 | -23.46294 | 25098 ft | 377 kts | 348° |
| 2026-04-28 16:09 | 14.85255 | -23.46732 | 24775 ft | 374 kts | 348° |
| 2026-04-28 16:10 | 14.90345 | -23.47590 | 24116 ft | 368 kts | 348° |
| 2026-04-28 16:10 | 14.92916 | -23.47839 | 23767 ft | 368 kts | 356° |
| 2026-04-28 16:10 | 14.97995 | -23.47230 | 23117 ft | 368 kts | 9° |
| 2026-04-28 16:11 | 15.02958 | -23.46040 | 22508 ft | 362 kts | 10° |
| 2026-04-28 16:11 | 15.07871 | -23.44845 | 21858 ft | 358 kts | 10° |
| 2026-04-28 16:12 | 15.12725 | -23.43672 | 21132 ft | 358 kts | 10° |
| 2026-04-28 16:12 | 15.15143 | -23.43090 | 20753 ft | 359 kts | 10° |
| 2026-04-28 16:13 | 15.20016 | -23.41914 | 19990 ft | 358 kts | 10° |
| 2026-04-28 16:13 | 15.22462 | -23.41325 | 19613 ft | 358 kts | 11° |
| 2026-04-28 16:13 | 15.27304 | -23.40157 | 18880 ft | 358 kts | 11° |
| 2026-04-28 16:14 | 15.32169 | -23.38982 | 18166 ft | 356 kts | 11° |
| 2026-04-28 16:14 | 15.36975 | -23.37824 | 17444 ft | 354 kts | 11° |
| 2026-04-28 16:15 | 15.41765 | -23.36666 | 16718 ft | 353 kts | 11° |
| 2026-04-28 16:15 | 15.44171 | -23.36084 | 16334 ft | 353 kts | 11° |
| 2026-04-28 16:15 | 15.46565 | -23.35505 | 15957 ft | 352 kts | 11° |
| 2026-04-28 16:16 | 15.51344 | -23.34350 | 15207 ft | 352 kts | 11° |
| 2026-04-28 16:16 | 15.53710 | -23.33778 | 14851 ft | 351 kts | 11° |
| 2026-04-28 16:17 | 15.58453 | -23.32567 | 14189 ft | 348 kts | 14° |
| 2026-04-28 16:17 | 15.60753 | -23.31756 | 13835 ft | 348 kts | 19° |
| 2026-04-28 16:17 | 15.62985 | -23.30806 | 13478 ft | 348 kts | 20° |
| 2026-04-28 16:17 | 15.65197 | -23.29831 | 13113 ft | 348 kts | 20° |
| 2026-04-28 16:18 | 15.67432 | -23.28842 | 12749 ft | 347 kts | 21° |
| 2026-04-28 16:18 | 15.69668 | -23.27852 | 12386 ft | 347 kts | 21° |
| 2026-04-28 16:18 | 15.71898 | -23.26868 | 12037 ft | 346 kts | 20° |
| 2026-04-28 16:18 | 15.74093 | -23.25898 | 11688 ft | 345 kts | 20° |
| 2026-04-28 16:19 | 15.76312 | -23.24918 | 11340 ft | 344 kts | 20° |
| 2026-04-28 16:19 | 15.78527 | -23.23941 | 10989 ft | 343 kts | 20° |
| 2026-04-28 16:19 | 15.80720 | -23.22974 | 10648 ft | 342 kts | 20° |
| 2026-04-28 16:19 | 15.82929 | -23.22000 | 10306 ft | 341 kts | 20° |
| 2026-04-28 16:20 | 15.85092 | -23.21046 | 10094 ft | 336 kts | 20° |
| 2026-04-28 16:20 | 15.87219 | -23.20107 | 10029 ft | 322 kts | 20° |
| 2026-04-28 16:20 | 15.89234 | -23.19215 | 10021 ft | 304 kts | 20° |
| 2026-04-28 16:20 | 15.91160 | -23.18364 | 9801 ft | 303 kts | 20° |
| 2026-04-28 16:21 | 15.93115 | -23.17503 | 9479 ft | 304 kts | 20° |
| 2026-04-28 16:21 | 15.95075 | -23.16640 | 9182 ft | 304 kts | 20° |
| 2026-04-28 16:21 | 15.97026 | -23.15779 | 8911 ft | 303 kts | 20° |
| 2026-04-28 16:21 | 15.98959 | -23.14925 | 8645 ft | 301 kts | 20° |
| 2026-04-28 16:22 | 16.00876 | -23.14077 | 8396 ft | 299 kts | 20° |
| 2026-04-28 16:22 | 16.02815 | -23.13220 | 8140 ft | 298 kts | 20° |
| 2026-04-28 16:22 | 16.04721 | -23.12379 | 7876 ft | 296 kts | 20° |
| 2026-04-28 16:22 | 16.06609 | -23.11545 | 7616 ft | 295 kts | 20° |
| 2026-04-28 16:23 | 16.08513 | -23.10703 | 7355 ft | 293 kts | 20° |
| 2026-04-28 16:23 | 16.10387 | -23.09874 | 7092 ft | 292 kts | 20° |
| 2026-04-28 16:23 | 16.12266 | -23.09043 | 6834 ft | 291 kts | 20° |
| 2026-04-28 16:23 | 16.14123 | -23.08223 | 6583 ft | 290 kts | 20° |
| 2026-04-28 16:24 | 16.15980 | -23.07401 | 6311 ft | 289 kts | 20° |
| 2026-04-28 16:24 | 16.17849 | -23.06575 | 6040 ft | 288 kts | 20° |
| 2026-04-28 16:24 | 16.19677 | -23.05767 | 5788 ft | 286 kts | 20° |
| 2026-04-28 16:24 | 16.21528 | -23.04949 | 5521 ft | 285 kts | 21° |
| 2026-04-28 16:25 | 16.23353 | -23.04142 | 5267 ft | 284 kts | 21° |
| 2026-04-28 16:25 | 16.25164 | -23.03340 | 5006 ft | 283 kts | 21° |
| 2026-04-28 16:25 | 16.26984 | -23.02534 | 4671 ft | 278 kts | 22° |
| 2026-04-28 16:25 | 16.28707 | -23.01769 | 4391 ft | 265 kts | 22° |
| 2026-04-28 16:26 | 16.30406 | -23.01015 | 4183 ft | 260 kts | 22° |
| 2026-04-28 16:26 | 16.32074 | -23.00275 | 3924 ft | 260 kts | 22° |
| 2026-04-28 16:26 | 16.33747 | -22.99534 | 3691 ft | 259 kts | 22° |
| 2026-04-28 16:26 | 16.35413 | -22.98796 | 3442 ft | 258 kts | 23° |
| 2026-04-28 16:27 | 16.37071 | -22.98061 | 3198 ft | 258 kts | 23° |
| 2026-04-28 16:27 | 16.38704 | -22.97337 | 2950 ft | 257 kts | 23° |
| 2026-04-28 16:27 | 16.41925 | -22.95904 | 2801 ft | 241 kts | 23° |
| 2026-04-28 16:28 | 16.43447 | -22.95228 | 2801 ft | 228 kts | 23° |
| 2026-04-28 16:28 | 16.44423 | -22.94854 | 2786 ft | 220 kts | 14° |
| 2026-04-28 16:28 | 16.46382 | -22.94660 | 2767 ft | 206 kts | 1° |
| 2026-04-28 16:28 | 16.47801 | -22.94674 | 2751 ft | 194 kts | 0° |
| 2026-04-28 16:29 | 16.50340 | -22.94712 | 2623 ft | 173 kts | 1° |
| 2026-04-28 16:29 | 16.52748 | -22.94738 | 2130 ft | 171 kts | 2° |
| 2026-04-28 16:30 | 16.53946 | -22.94750 | 1911 ft | 169 kts | 2° |
| 2026-04-28 16:30 | 16.55071 | -22.94761 | 1880 ft | 153 kts | 2° |
| 2026-04-28 16:30 | 16.56098 | -22.94771 | 1873 ft | 140 kts | 2° |
| 2026-04-28 16:30 | 16.57076 | -22.94777 | 1909 ft | 137 kts | 2° |
| 2026-04-28 16:31 | 16.58020 | -22.94784 | 1929 ft | 135 kts | 2° |
| 2026-04-28 16:31 | 16.58968 | -22.94790 | 1939 ft | 135 kts | 2° |
| 2026-04-28 16:31 | 16.59924 | -22.94796 | 1936 ft | 135 kts | 2° |
| 2026-04-28 16:31 | 16.60865 | -22.94803 | 1954 ft | 135 kts | 2° |
| 2026-04-28 16:32 | 16.61818 | -22.94809 | 1981 ft | 136 kts | 2° |
| 2026-04-28 16:32 | 16.63718 | -22.94823 | 1837 ft | 136 kts | 2° |
| 2026-04-28 16:32 | 16.64669 | -22.94831 | 1658 ft | 135 kts | 2° |
| 2026-04-28 16:33 | 16.65610 | -22.94837 | 1487 ft | 134 kts | 3° |
| 2026-04-28 16:33 | 16.66239 | -22.94842 | 1371 ft | 134 kts | 3° |
| 2026-04-28 16:33 | 16.67479 | -22.94851 | 1141 ft | 134 kts | 3° |
| 2026-04-28 16:33 | 16.68422 | -22.94858 | 968 ft | 135 kts | 3° |
| 2026-04-28 16:34 | 16.69361 | -22.94865 | 792 ft | 135 kts | 3° |
| 2026-04-28 16:34 | 16.70312 | -22.94872 | 615 ft | 135 kts | 3° |
| 2026-04-28 16:34 | 16.71263 | -22.94879 | 439 ft | 136 kts | 4° |
| 2026-04-28 16:34 | 16.72201 | -22.94878 | 241 ft | 135 kts | 3° |
| 2026-04-28 16:35 | 16.73060 | -22.94878 | 197 ft | 88 kts | 356° |
| 2026-04-28 16:35 | 16.73501 | -22.94884 | 196 ft | 56 kts | 2° |
| 2026-04-28 16:35 | 16.73887 | -22.94890 | 193 ft | 54 kts | 359° |
| 2026-04-28 16:35 | 16.74195 | -22.94881 | 190 ft | 29 kts | 32° |
| 2026-04-28 16:36 | 16.74287 | -22.94743 | 188 ft | 21 kts | 99° |
| 2026-04-28 16:36 | 16.74170 | -22.94701 | 188 ft | 19 kts | 180° |
| 2026-04-28 16:36 | 16.74040 | -22.94701 | 190 ft | 17 kts | 179° |
| 2026-04-28 16:36 | 16.73918 | -22.94699 | 191 ft | 17 kts | 179° |
| 2026-04-28 16:37 | 16.73795 | -22.94696 | 191 ft | 17 kts | 178° |
| 2026-04-28 16:37 | 16.73679 | -22.94691 | 194 ft | 15 kts | 169° |
| 2026-04-28 16:37 | 16.73600 | -22.94619 | 192 ft | 14 kts | 148° |
| 2026-04-28 16:38 | 16.73440 | -22.94577 | 193 ft | 6 kts | 121° |
| 2026-04-28 16:38 | 16.73431 | -22.94524 | 192 ft | 8 kts | 91° |
| 2026-04-28 16:38 | 16.73431 | -22.94506 | 192 ft | 0 kts | 90° |